2018/06/24 01:00 VVNB 240100Z VRB01KT 9999 -RA FEW025 SCT064 28/25 Q1002 NOSIG
2018/06/24 01:00 VVDN 240100Z VRB02KT 9999 FEW017 34/23 Q1006 NOSIG
2018/06/24 01:00 VVTS 240100Z 25005KT 9999 FEW017 SCT050 29/27 Q1008 NOSIG
2018/06/24 01:00 VVPB 240100Z 18004KT 9999 FEW023 SCT100 32/24 Q1006 NOSIG

Powered by MinhViet JSC.